createdAt,value
2018-04-01T00:00:05.773Z,0
2018-04-01T00:01:08.442Z,0
2018-04-01T00:02:10.818Z,0
2018-04-01T00:03:13.470Z,0
2018-04-01T00:04:15.847Z,0
2018-04-01T00:05:18.207Z,0
2018-04-01T00:06:20.570Z,0
2018-04-01T00:07:22.960Z,0
2018-04-01T00:08:25.322Z,0
2018-04-01T00:09:27.688Z,0
2018-04-01T00:10:30.062Z,0
2018-04-01T00:11:32.423Z,0
2018-04-01T00:12:35.071Z,0
2018-04-01T00:13:37.441Z,0
2018-04-01T00:14:39.805Z,0
2018-04-01T00:15:42.180Z,0
2018-04-01T00:16:44.545Z,0
2018-04-01T00:17:46.911Z,0
2018-04-01T00:18:49.582Z,0
2018-04-01T00:19:51.945Z,0
2018-04-01T00:20:54.315Z,0
2018-04-01T00:21:56.733Z,0
2018-04-01T00:22:59.062Z,0
2018-04-01T00:24:01.436Z,0
2018-04-01T00:25:04.387Z,0
2018-04-01T00:26:07.049Z,0
2018-04-01T00:27:09.414Z,0
2018-04-01T00:28:11.783Z,0
2018-04-01T00:29:14.442Z,0
2018-04-01T00:30:17.100Z,0
2018-04-01T00:31:19.457Z,0
2018-04-01T00:32:21.825Z,0
2018-04-01T00:33:24.214Z,0
2018-04-01T00:34:26.569Z,0
2018-04-01T00:35:28.930Z,0
2018-04-01T00:36:31.299Z,0
2018-04-01T00:37:33.667Z,0
2018-04-01T00:38:36.044Z,0
2018-04-01T00:39:38.418Z,0
2018-04-01T00:40:40.772Z,0
2018-04-01T00:41:43.443Z,0
2018-04-01T00:42:45.799Z,0
2018-04-01T00:43:48.179Z,0
2018-04-01T00:44:50.546Z,0
2018-04-01T00:45:52.918Z,0
2018-04-01T00:46:55.288Z,0
2018-04-01T00:47:57.662Z,0
2018-04-01T00:49:00.023Z,0
2018-04-01T00:50:02.401Z,0
2018-04-01T00:51:05.049Z,0
2018-04-01T00:52:07.412Z,0
2018-04-01T00:53:09.793Z,0
2018-04-01T00:54:12.449Z,0
2018-04-01T00:55:14.813Z,0
2018-04-01T00:56:17.185Z,0
2018-04-01T00:57:19.549Z,0
2018-04-01T00:58:21.922Z,0
2018-04-01T00:59:24.294Z,0
2018-04-01T01:00:26.662Z,0
2018-04-01T01:01:29.034Z,0
2018-04-01T01:02:31.398Z,0
2018-04-01T01:03:33.769Z,0
2018-04-01T01:04:36.130Z,0
2018-04-01T01:05:38.495Z,0
2018-04-01T01:06:40.871Z,0
2018-04-01T01:07:43.235Z,0
2018-04-01T01:08:45.612Z,0
2018-04-01T01:09:48.267Z,0
2018-04-01T01:10:50.642Z,0
2018-04-01T01:11:53.006Z,0
2018-04-01T01:12:55.382Z,0
2018-04-01T01:13:57.742Z,0
2018-04-01T01:15:00.104Z,0
2018-04-01T01:16:02.490Z,0
2018-04-01T01:17:04.853Z,0
2018-04-01T01:18:07.225Z,0
2018-04-01T01:19:09.593Z,0
2018-04-01T01:20:12.242Z,0
2018-04-01T01:21:14.615Z,0
2018-04-01T01:22:16.996Z,0
2018-04-01T01:23:19.357Z,0
2018-04-01T01:24:21.723Z,0
2018-04-01T01:25:24.101Z,0
2018-04-01T01:26:26.472Z,0
2018-04-01T01:27:28.846Z,0
2018-04-01T01:28:31.208Z,0
2018-04-01T01:29:33.639Z,0
2018-04-01T01:30:35.949Z,0
2018-04-01T01:31:38.325Z,0
2018-04-01T01:32:40.686Z,0
2018-04-01T01:33:43.056Z,0
2018-04-01T01:34:45.719Z,0
2018-04-01T01:35:48.401Z,0
2018-04-01T01:36:50.767Z,0
2018-04-01T01:37:53.141Z,0
2018-04-01T01:38:55.790Z,0
2018-04-01T01:39:58.166Z,0
2018-04-01T01:41:00.814Z,0
2018-04-01T01:42:03.189Z,0
2018-04-01T01:43:05.553Z,0
2018-04-01T01:44:08.206Z,0
2018-04-01T01:45:10.577Z,0
2018-04-01T01:46:12.943Z,0
2018-04-01T01:47:15.301Z,0
2018-04-01T01:48:17.684Z,0
2018-04-01T01:49:20.037Z,0
2018-04-01T01:50:22.411Z,0
2018-04-01T01:51:24.783Z,0
2018-04-01T01:52:27.439Z,0
2018-04-01T01:53:29.812Z,0
2018-04-01T01:54:32.185Z,0
2018-04-01T01:55:34.843Z,0
2018-04-01T01:56:37.205Z,0
2018-04-01T01:57:39.577Z,0
2018-04-01T01:58:41.942Z,0
2018-04-01T01:59:44.308Z,0
2018-04-01T02:00:46.685Z,0
2018-04-01T02:01:49.050Z,0
2018-04-01T02:02:51.686Z,0
2018-04-01T02:03:54.063Z,0
2018-04-01T02:04:56.432Z,0
2018-04-01T02:05:59.083Z,0
2018-04-01T02:07:01.451Z,0
2018-04-01T02:08:03.825Z,0
2018-04-01T02:09:06.479Z,0
2018-04-01T02:10:08.853Z,0
2018-04-01T02:11:11.224Z,0
2018-04-01T02:12:13.590Z,0
2018-04-01T02:13:15.967Z,0
2018-04-01T02:14:18.618Z,0
2018-04-01T02:15:20.984Z,0
2018-04-01T02:16:23.636Z,0
2018-04-01T02:17:26.009Z,0
2018-04-01T02:18:28.375Z,0
2018-04-01T02:19:30.750Z,0
2018-04-01T02:20:33.108Z,0
2018-04-01T02:21:36.032Z,0
2018-04-01T02:22:38.407Z,0
2018-04-01T02:23:40.766Z,0
2018-04-01T02:24:43.427Z,0
2018-04-01T02:25:45.786Z,0
2018-04-01T02:26:48.159Z,0
2018-04-01T02:27:50.514Z,0
2018-04-01T02:28:52.883Z,0
2018-04-01T02:29:55.254Z,0
2018-04-01T02:30:57.615Z,0
2018-04-01T02:31:59.988Z,0
2018-04-01T02:33:02.358Z,0
2018-04-01T02:34:04.723Z,0
2018-04-01T02:35:07.109Z,0
2018-04-01T02:36:09.482Z,0
2018-04-01T02:37:12.127Z,0
2018-04-01T02:38:14.495Z,0
2018-04-01T02:39:17.149Z,0
2018-04-01T02:40:20.358Z,0
2018-04-01T02:41:23.322Z,0
2018-04-01T02:42:25.681Z,0
2018-04-01T02:43:28.340Z,0
2018-04-01T02:44:30.990Z,0
2018-04-01T02:45:33.643Z,0
2018-04-01T02:46:36.289Z,0
2018-04-01T02:47:38.715Z,0
2018-04-01T02:48:41.090Z,0
2018-04-01T02:49:43.470Z,0
2018-04-01T02:50:45.822Z,0
2018-04-01T02:51:48.486Z,0
2018-04-01T02:52:50.854Z,0
2018-04-01T02:53:53.515Z,0
2018-04-01T02:54:55.877Z,0
2018-04-01T02:55:58.246Z,0
2018-04-01T02:57:00.624Z,0
2018-04-01T02:58:02.989Z,0
2018-04-01T02:59:05.927Z,0
2018-04-01T03:00:08.292Z,0
2018-04-01T03:01:10.977Z,0
2018-04-01T03:02:13.339Z,0
2018-04-01T03:03:15.999Z,0
2018-04-01T03:04:18.672Z,0
2018-04-01T03:05:21.036Z,0
2018-04-01T03:06:23.715Z,0
2018-04-01T03:07:26.373Z,0
2018-04-01T03:08:29.017Z,0
2018-04-01T03:09:31.684Z,0
2018-04-01T03:10:34.046Z,0
2018-04-01T03:11:36.987Z,0
2018-04-01T03:12:39.351Z,0
2018-04-01T03:13:42.006Z,0
2018-04-01T03:14:44.377Z,0
2018-04-01T03:15:46.751Z,0
2018-04-01T03:16:49.122Z,0
2018-04-01T03:17:51.495Z,0
2018-04-01T03:18:53.863Z,0
2018-04-01T03:19:56.234Z,0
2018-04-01T03:20:58.607Z,0
2018-04-01T03:22:00.973Z,0
2018-04-01T03:23:03.341Z,0
2018-04-01T03:24:05.717Z,0
2018-04-01T03:25:08.079Z,0
2018-04-01T03:26:10.459Z,0
2018-04-01T03:27:13.389Z,0
2018-04-01T03:28:16.036Z,0
2018-04-01T03:29:18.422Z,0
2018-04-01T03:30:20.789Z,0
2018-04-01T03:31:23.161Z,0
2018-04-01T03:32:25.805Z,0
2018-04-01T03:33:28.178Z,0
2018-04-01T03:34:30.540Z,0
2018-04-01T03:35:32.917Z,0
2018-04-01T03:36:35.579Z,0
2018-04-01T03:37:37.959Z,0
2018-04-01T03:38:40.330Z,0
2018-04-01T03:39:42.694Z,0
2018-04-01T03:40:45.062Z,0
2018-04-01T03:41:47.422Z,0
2018-04-01T03:42:50.070Z,0
2018-04-01T03:43:52.442Z,0
2018-04-01T03:44:54.813Z,0
2018-04-01T03:45:57.182Z,0
2018-04-01T03:46:59.544Z,0
2018-04-01T03:48:02.490Z,0
2018-04-01T03:49:04.856Z,0
2018-04-01T03:50:07.226Z,0
2018-04-01T03:51:09.577Z,0
2018-04-01T03:52:12.234Z,0
2018-04-01T03:53:14.604Z,0
2018-04-01T03:54:16.979Z,0
2018-04-01T03:55:19.345Z,0
2018-04-01T03:56:21.723Z,0
2018-04-01T03:57:24.368Z,0
2018-04-01T03:58:26.742Z,0
2018-04-01T03:59:29.399Z,0
2018-04-01T04:00:31.780Z,0
2018-04-01T04:01:34.140Z,0
2018-04-01T04:02:37.099Z,0
2018-04-01T04:03:39.757Z,0
2018-04-01T04:04:42.122Z,0
2018-04-01T04:05:44.497Z,0
2018-04-01T04:06:46.865Z,0
2018-04-01T04:07:49.232Z,0
2018-04-01T04:08:51.598Z,0
2018-04-01T04:09:53.956Z,0
2018-04-01T04:10:56.331Z,0
2018-04-01T04:11:58.984Z,0
2018-04-01T04:13:01.355Z,0
2018-04-01T04:14:04.005Z,0
2018-04-01T04:15:06.383Z,0
2018-04-01T04:16:08.747Z,0
2018-04-01T04:17:11.124Z,0
2018-04-01T04:18:13.766Z,0
2018-04-01T04:19:16.131Z,0
2018-04-01T04:20:18.505Z,0
2018-04-01T04:21:20.872Z,0
2018-04-01T04:22:23.241Z,0
2018-04-01T04:23:25.611Z,0
2018-04-01T04:24:27.986Z,0
2018-04-01T04:25:30.925Z,4
2018-04-01T04:26:33.278Z,4
2018-04-01T04:27:35.651Z,0
2018-04-01T04:28:38.013Z,0
2018-04-01T04:29:40.663Z,4
2018-04-01T04:30:43.046Z,4
2018-04-01T04:31:45.409Z,4
2018-04-01T04:32:48.065Z,4
2018-04-01T04:33:50.724Z,8
2018-04-01T04:34:53.366Z,4
2018-04-01T04:35:55.739Z,12
2018-04-01T04:36:58.103Z,12
2018-04-01T04:38:00.752Z,12
2018-04-01T04:39:03.132Z,16
2018-04-01T04:40:05.789Z,16
2018-04-01T04:41:08.425Z,16
2018-04-01T04:42:11.090Z,20
2018-04-01T04:43:13.458Z,24
2018-04-01T04:44:16.110Z,24
2018-04-01T04:45:18.481Z,24
2018-04-01T04:46:21.149Z,28
2018-04-01T04:47:23.510Z,32
2018-04-01T04:48:25.889Z,36
2018-04-01T04:49:28.259Z,32
2018-04-01T04:50:30.619Z,40
2018-04-01T04:51:33.269Z,40
2018-04-01T04:52:35.636Z,48
2018-04-01T04:53:38.004Z,56
2018-04-01T04:54:40.370Z,52
2018-04-01T04:55:42.740Z,60
2018-04-01T04:56:45.115Z,68
2018-04-01T04:57:47.478Z,60
2018-04-01T04:58:49.845Z,68
2018-04-01T04:59:52.212Z,68
2018-04-01T05:00:54.585Z,80
2018-04-01T05:01:57.545Z,84
2018-04-01T05:02:59.911Z,84
2018-04-01T05:04:02.281Z,92
2018-04-01T05:05:04.954Z,100
2018-04-01T05:06:07.318Z,108
2018-04-01T05:07:09.694Z,116
2018-04-01T05:08:12.069Z,120
2018-04-01T05:09:14.454Z,116
2018-04-01T05:10:16.821Z,140
2018-04-01T05:11:19.198Z,148
2018-04-01T05:12:21.560Z,148
2018-04-01T05:13:23.924Z,148
2018-04-01T05:14:26.290Z,168
2018-04-01T05:15:28.649Z,184
2018-04-01T05:16:31.023Z,176
2018-04-01T05:17:33.381Z,220
2018-04-01T05:18:35.754Z,216
2018-04-01T05:19:38.135Z,212
2018-04-01T05:20:40.797Z,212
2018-04-01T05:21:43.454Z,240
2018-04-01T05:22:45.827Z,252
2018-04-01T05:23:48.189Z,252
2018-04-01T05:24:50.835Z,280
2018-04-01T05:25:53.199Z,288
2018-04-01T05:26:55.573Z,300
2018-04-01T05:27:58.223Z,320
2018-04-01T05:29:00.598Z,324
2018-04-01T05:30:03.250Z,320
2018-04-01T05:31:05.898Z,344
2018-04-01T05:32:08.273Z,396
2018-04-01T05:33:10.644Z,400
2018-04-01T05:34:13.007Z,436
2018-04-01T05:35:15.381Z,484
2018-04-01T05:36:17.743Z,512
2018-04-01T05:37:20.117Z,540
2018-04-01T05:38:22.480Z,528
2018-04-01T05:39:24.845Z,572
2018-04-01T05:40:27.222Z,588
2018-04-01T05:41:29.592Z,600
2018-04-01T05:42:31.965Z,668
2018-04-01T05:43:34.618Z,688
2018-04-01T05:44:37.262Z,688
2018-04-01T05:45:39.635Z,740
2018-04-01T05:46:42.003Z,732
2018-04-01T05:47:44.657Z,772
2018-04-01T05:48:47.018Z,828
2018-04-01T05:49:49.398Z,880
2018-04-01T05:50:51.761Z,848
2018-04-01T05:51:54.134Z,884
2018-04-01T05:52:56.505Z,1016
2018-04-01T05:53:58.874Z,1060
2018-04-01T05:55:01.238Z,1048
2018-04-01T05:56:03.889Z,1044
2018-04-01T05:57:06.272Z,1028
2018-04-01T05:58:08.921Z,1032
2018-04-01T05:59:11.281Z,1092
2018-04-01T06:00:13.932Z,1104
2018-04-01T06:01:16.313Z,1136
2018-04-01T06:02:18.679Z,1216
2018-04-01T06:03:21.052Z,1300
2018-04-01T06:04:23.698Z,1512
2018-04-01T06:05:26.064Z,1496
2018-04-01T06:06:28.723Z,1500
2018-04-01T06:07:31.083Z,1520
2018-04-01T06:08:33.447Z,1552
2018-04-01T06:09:35.813Z,1588
2018-04-01T06:10:38.181Z,1640
2018-04-01T06:11:40.561Z,1656
2018-04-01T06:12:42.939Z,1736
2018-04-01T06:13:45.293Z,1712
2018-04-01T06:14:47.962Z,1864
2018-04-01T06:15:50.328Z,1876
2018-04-01T06:16:52.702Z,1916
2018-04-01T06:17:55.076Z,1992
2018-04-01T06:18:57.774Z,2068
2018-04-01T06:20:00.088Z,2184
2018-04-01T06:21:02.756Z,2172
2018-04-01T06:22:05.439Z,2248
2018-04-01T06:23:08.361Z,2280
2018-04-01T06:24:10.733Z,2208
2018-04-01T06:25:13.112Z,2112
2018-04-01T06:26:15.750Z,2172
2018-04-01T06:27:18.123Z,2256
2018-04-01T06:28:20.497Z,2356
2018-04-01T06:29:22.861Z,2272
2018-04-01T06:30:25.267Z,2428
2018-04-01T06:31:27.619Z,2416
2018-04-01T06:32:29.976Z,2452
2018-04-01T06:33:32.354Z,2520
2018-04-01T06:34:34.722Z,2556
2018-04-01T06:35:37.097Z,2560
2018-04-01T06:36:39.751Z,2624
2018-04-01T06:37:42.108Z,2660
2018-04-01T06:38:44.761Z,2680
2018-04-01T06:39:47.133Z,2732
2018-04-01T06:40:49.497Z,2716
2018-04-01T06:41:51.873Z,2724
2018-04-01T06:42:54.241Z,2696
2018-04-01T06:43:56.616Z,2760
2018-04-01T06:44:58.996Z,2836
2018-04-01T06:46:01.365Z,2940
2018-04-01T06:47:03.729Z,2984
2018-04-01T06:48:06.096Z,2776
2018-04-01T06:49:08.470Z,2852
2018-04-01T06:50:11.408Z,2644
2018-04-01T06:51:13.772Z,2760
2018-04-01T06:52:16.140Z,2776
2018-04-01T06:53:18.510Z,2840
2018-04-01T06:54:20.883Z,3028
2018-04-01T06:55:23.256Z,2964
2018-04-01T06:56:25.624Z,2968
2018-04-01T06:57:27.999Z,3024
2018-04-01T06:58:30.363Z,3148
2018-04-01T06:59:32.731Z,3296
2018-04-01T07:00:35.106Z,3344
2018-04-01T07:01:37.473Z,3320
2018-04-01T07:02:39.848Z,3356
2018-04-01T07:03:42.210Z,3456
2018-04-01T07:04:44.568Z,3632
2018-04-01T07:05:46.953Z,3708
2018-04-01T07:06:49.606Z,3584
2018-04-01T07:07:51.970Z,4040
2018-04-01T07:08:54.901Z,3840
2018-04-01T07:09:57.276Z,3836
2018-04-01T07:10:59.654Z,4292
2018-04-01T07:12:02.337Z,4196
2018-04-01T07:13:04.995Z,4192
2018-04-01T07:14:07.362Z,4072
2018-04-01T07:15:09.730Z,4348
2018-04-01T07:16:12.387Z,4196
2018-04-01T07:17:15.041Z,4444
2018-04-01T07:18:17.408Z,4408
2018-04-01T07:19:20.064Z,4260
2018-04-01T07:20:22.434Z,4096
2018-04-01T07:21:24.810Z,4236
2018-04-01T07:22:27.168Z,4480
2018-04-01T07:23:29.547Z,4528
2018-04-01T07:24:31.913Z,4420
2018-04-01T07:25:34.285Z,4476
2018-04-01T07:26:36.659Z,4564
2018-04-01T07:27:39.320Z,4376
2018-04-01T07:28:41.675Z,4292
2018-04-01T07:29:44.076Z,4264
2018-04-01T07:30:46.433Z,4408
2018-04-01T07:31:48.793Z,4464
2018-04-01T07:32:51.169Z,4260
2018-04-01T07:33:53.540Z,4448
2018-04-01T07:34:55.906Z,4656
2018-04-01T07:35:58.555Z,4676
2018-04-01T07:37:00.927Z,4688
2018-04-01T07:38:03.303Z,4812
2018-04-01T07:39:05.669Z,4684
2018-04-01T07:40:08.039Z,4772
2018-04-01T07:41:10.409Z,4768
2018-04-01T07:42:12.782Z,4348
2018-04-01T07:43:15.145Z,4616
2018-04-01T07:44:17.519Z,4860
2018-04-01T07:45:19.887Z,4496
2018-04-01T07:46:22.540Z,4172
2018-04-01T07:47:24.916Z,4552
2018-04-01T07:48:27.281Z,4612
2018-04-01T07:49:29.653Z,4668
2018-04-01T07:50:32.598Z,4892
2018-04-01T07:51:34.971Z,4992
2018-04-01T07:52:37.344Z,4928
2018-04-01T07:53:39.710Z,4932
2018-04-01T07:54:42.070Z,4760
2018-04-01T07:55:44.763Z,6504
2018-04-01T07:56:47.130Z,6648
2018-04-01T07:57:49.498Z,6100
2018-04-01T07:58:52.153Z,6752
2018-04-01T07:59:54.523Z,6748
2018-04-01T08:00:56.894Z,6816
2018-04-01T08:01:59.280Z,6952
2018-04-01T08:03:01.640Z,7704
2018-04-01T08:04:04.012Z,7848
2018-04-01T08:05:06.391Z,7908
2018-04-01T08:06:08.760Z,7900
2018-04-01T08:07:11.130Z,7112
2018-04-01T08:08:14.052Z,8052
2018-04-01T08:09:16.425Z,7728
2018-04-01T08:10:18.802Z,7664
2018-04-01T08:11:21.175Z,8100
2018-04-01T08:12:23.542Z,7556
2018-04-01T08:13:26.191Z,7776
2018-04-01T08:14:28.564Z,8444
2018-04-01T08:15:31.512Z,7400
2018-04-01T08:16:34.191Z,7240
2018-04-01T08:17:36.543Z,7352
2018-04-01T08:18:38.909Z,8116
2018-04-01T08:19:41.310Z,8344
2018-04-01T08:20:43.974Z,8844
2018-04-01T08:21:46.338Z,9528
2018-04-01T08:22:48.712Z,8888
2018-04-01T08:23:51.365Z,9048
2018-04-01T08:24:53.738Z,8800
2018-04-01T08:25:56.104Z,9628
2018-04-01T08:26:58.480Z,9320
2018-04-01T08:28:00.848Z,9316
2018-04-01T08:29:03.509Z,9604
2018-04-01T08:30:05.880Z,9752
2018-04-01T08:31:08.259Z,9532
2018-04-01T08:32:10.636Z,8736
2018-04-01T08:33:13.102Z,9320
2018-04-01T08:34:15.796Z,9264
2018-04-01T08:35:18.147Z,9596
2018-04-01T08:36:20.510Z,9788
2018-04-01T08:37:22.893Z,9600
2018-04-01T08:38:26.026Z,8908
2018-04-01T08:39:28.401Z,9476
2018-04-01T08:40:31.064Z,9536
2018-04-01T08:41:33.444Z,9636
2018-04-01T08:42:35.808Z,9884
2018-04-01T08:43:38.200Z,10544
2018-04-01T08:44:40.564Z,10076
2018-04-01T08:45:42.937Z,9872
2018-04-01T08:46:45.314Z,10376
2018-04-01T08:47:47.957Z,10360
2018-04-01T08:48:50.333Z,11128
2018-04-01T08:49:52.785Z,10424
2018-04-01T08:50:55.162Z,11152
2018-04-01T08:51:57.543Z,10760
2018-04-01T08:52:59.901Z,10672
2018-04-01T08:54:02.276Z,11588
2018-04-01T08:55:04.925Z,12312
2018-04-01T08:56:07.351Z,12112
2018-04-01T08:57:09.716Z,12484
2018-04-01T08:58:12.132Z,12380
2018-04-01T08:59:14.501Z,12964
2018-04-01T09:00:16.882Z,12488
2018-04-01T09:01:19.313Z,12884
2018-04-01T09:02:21.976Z,12964
2018-04-01T09:03:24.418Z,12756
2018-04-01T09:04:26.785Z,13228
2018-04-01T09:05:29.203Z,14512
2018-04-01T09:06:31.579Z,13716
2018-04-01T09:07:34.012Z,14400
2018-04-01T09:08:36.391Z,13768
2018-04-01T09:09:38.842Z,13764
2018-04-01T09:10:41.213Z,15624
2018-04-01T09:11:43.643Z,15444
2018-04-01T09:12:46.015Z,15240
2018-04-01T09:13:48.711Z,14932
2018-04-01T09:14:51.092Z,15436
2018-04-01T09:15:53.489Z,15984
2018-04-01T09:16:55.906Z,16352
2018-04-01T09:17:58.245Z,17256
2018-04-01T09:19:00.890Z,17160
2018-04-01T09:20:03.268Z,16088
2018-04-01T09:21:06.223Z,15616
2018-04-01T09:22:08.593Z,16960
2018-04-01T09:23:10.960Z,18192
2018-04-01T09:24:13.359Z,17288
2018-04-01T09:25:15.811Z,16836
2018-04-01T09:26:18.214Z,16744
2018-04-01T09:27:20.607Z,17168
2018-04-01T09:28:22.983Z,16540
2018-04-01T09:29:25.434Z,16816
2018-04-01T09:30:28.101Z,17684
2018-04-01T09:31:30.477Z,18880
2018-04-01T09:32:32.844Z,20576
2018-04-01T09:33:35.236Z,20928
2018-04-01T09:34:37.602Z,18604
2018-04-01T09:35:40.213Z,21376
2018-04-01T09:36:42.578Z,20000
2018-04-01T09:37:44.955Z,20192
2018-04-01T09:38:47.342Z,19264
2018-04-01T09:39:49.712Z,17840
2018-04-01T09:40:52.067Z,18552
2018-04-01T09:41:54.731Z,18896
2018-04-01T09:42:57.389Z,17600
2018-04-01T09:43:59.771Z,16656
2018-04-01T09:45:02.138Z,17000
2018-04-01T09:46:04.511Z,15452
2018-04-01T09:47:06.886Z,16692
2018-04-01T09:48:09.273Z,17380
2018-04-01T09:49:11.642Z,17308
2018-04-01T09:50:14.013Z,16072
2018-04-01T09:51:16.389Z,18352
2018-04-01T09:52:18.756Z,14388
2018-04-01T09:53:21.194Z,14860
2018-04-01T09:54:23.507Z,15336
2018-04-01T09:55:26.166Z,14248
2018-04-01T09:56:28.539Z,13624
2018-04-01T09:57:31.189Z,13568
2018-04-01T09:58:33.562Z,13008
2018-04-01T09:59:35.931Z,12424
2018-04-01T10:00:38.596Z,13972
2018-04-01T10:01:40.979Z,13540
2018-04-01T10:02:43.349Z,13008
2018-04-01T10:03:45.726Z,13340
2018-04-01T10:04:48.086Z,12188
2018-04-01T10:05:50.460Z,11844
2018-04-01T10:06:52.836Z,12116
2018-04-01T10:07:55.505Z,13976
2018-04-01T10:08:57.878Z,12340
2018-04-01T10:10:00.256Z,12500
2018-04-01T10:11:02.901Z,12668
2018-04-01T10:12:05.284Z,12288
2018-04-01T10:13:07.653Z,11216
2018-04-01T10:14:10.032Z,11296
2018-04-01T10:15:12.399Z,10504
2018-04-01T10:16:14.782Z,12900
2018-04-01T10:17:17.148Z,14600
2018-04-01T10:18:19.520Z,14880
2018-04-01T10:19:21.905Z,15612
2018-04-01T10:20:24.275Z,14332
2018-04-01T10:21:26.940Z,14612
2018-04-01T10:22:29.316Z,14084
2018-04-01T10:23:31.682Z,13504
2018-04-01T10:24:34.061Z,13928
2018-04-01T10:25:36.434Z,15112
2018-04-01T10:26:39.132Z,12156
2018-04-01T10:27:41.463Z,13520
2018-04-01T10:28:43.839Z,13424
2018-04-01T10:29:46.498Z,13404
2018-04-01T10:30:49.148Z,14508
2018-04-01T10:31:51.516Z,13608
2018-04-01T10:32:53.907Z,13268
2018-04-01T10:33:56.276Z,13092
2018-04-01T10:34:58.927Z,13344
2018-04-01T10:36:01.586Z,14592
2018-04-01T10:37:03.951Z,14768
2018-04-01T10:38:06.319Z,16292
2018-04-01T10:39:08.703Z,18092
2018-04-01T10:40:11.057Z,17960
2018-04-01T10:41:13.484Z,19584
2018-04-01T10:42:15.806Z,20192
2018-04-01T10:43:18.194Z,21472
2018-04-01T10:44:20.550Z,19936
2018-04-01T10:45:22.914Z,16032
2018-04-01T10:46:25.279Z,16300
2018-04-01T10:47:27.665Z,14448
2018-04-01T10:48:30.047Z,12916
2018-04-01T10:49:32.463Z,12768
2018-04-01T10:50:34.781Z,13676
2018-04-01T10:51:37.167Z,20096
2018-04-01T10:52:39.529Z,17884
2018-04-01T10:53:41.909Z,19712
2018-04-01T10:54:44.284Z,18988
2018-04-01T10:55:46.650Z,17912
2018-04-01T10:56:49.317Z,16640
2018-04-01T10:57:51.691Z,14572
2018-04-01T10:58:54.057Z,13516
2018-04-01T10:59:56.429Z,13064
2018-04-01T11:00:58.800Z,11780
2018-04-01T11:02:01.459Z,10964
2018-04-01T11:03:03.840Z,10864
2018-04-01T11:04:06.198Z,11108
2018-04-01T11:05:08.938Z,12540
2018-04-01T11:06:11.243Z,12700
2018-04-01T11:07:13.608Z,10740
2018-04-01T11:08:15.986Z,10736
2018-04-01T11:09:18.663Z,10156
2018-04-01T11:10:21.040Z,12456
2018-04-01T11:11:23.459Z,11416
2018-04-01T11:12:26.096Z,11616
2018-04-01T11:13:28.455Z,11544
2018-04-01T11:14:30.825Z,12548
2018-04-01T11:15:33.203Z,13036
2018-04-01T11:16:35.862Z,11344
2018-04-01T11:17:38.234Z,10064
2018-04-01T11:18:40.616Z,10480
2018-04-01T11:19:42.993Z,12584
2018-04-01T11:20:45.348Z,14580
2018-04-01T11:21:48.009Z,15244
2018-04-01T11:22:50.395Z,13184
2018-04-01T11:23:52.756Z,12852
2018-04-01T11:24:55.132Z,13940
2018-04-01T11:25:57.520Z,14412
2018-04-01T11:27:00.175Z,14656
2018-04-01T11:28:02.562Z,12496
2018-04-01T11:29:04.935Z,12908
2018-04-01T11:30:07.305Z,14160
2018-04-01T11:31:09.698Z,12784
2018-04-01T11:32:12.360Z,14764
2018-04-01T11:33:15.011Z,14812
2018-04-01T11:34:17.682Z,13604
2018-04-01T11:35:20.356Z,15960
2018-04-01T11:36:22.723Z,16040
2018-04-01T11:37:25.101Z,16676
2018-04-01T11:38:27.469Z,12896
2018-04-01T11:39:29.837Z,14976
2018-04-01T11:40:32.221Z,14044
2018-04-01T11:41:34.584Z,12196
2018-04-01T11:42:37.243Z,13844
2018-04-01T11:43:39.613Z,15032
2018-04-01T11:44:41.982Z,13356
2018-04-01T11:45:44.928Z,13552
2018-04-01T11:46:47.303Z,13176
2018-04-01T11:47:50.258Z,13096
2018-04-01T11:48:52.634Z,13748
2018-04-01T11:49:55.003Z,15104
2018-04-01T11:50:57.719Z,13432
2018-04-01T11:52:00.334Z,12692
2018-04-01T11:53:02.988Z,12580
2018-04-01T11:54:05.355Z,14168
2018-04-01T11:55:07.719Z,14172
2018-04-01T11:56:10.099Z,12228
2018-04-01T11:57:12.464Z,14468
2018-04-01T11:58:14.842Z,13084
2018-04-01T11:59:17.213Z,13564
2018-04-01T12:00:19.629Z,14604
2018-04-01T12:01:22.086Z,14620
2018-04-01T12:02:25.162Z,14972
2018-04-01T12:03:27.616Z,16184
2018-04-01T12:04:29.981Z,16284
2018-04-01T12:05:32.370Z,16656
2018-04-01T12:06:35.032Z,14880
2018-04-01T12:07:37.403Z,17264
2018-04-01T12:08:39.775Z,15620
2018-04-01T12:09:42.153Z,15572
2018-04-01T12:10:44.526Z,14384
2018-04-01T12:11:46.906Z,14668
2018-04-01T12:12:49.274Z,14452
2018-04-01T12:13:51.639Z,14752
2018-04-01T12:14:54.310Z,15420
2018-04-01T12:15:56.685Z,16752
2018-04-01T12:16:59.058Z,14272
2018-04-01T12:18:01.724Z,14568
2018-04-01T12:19:04.393Z,13496
2018-04-01T12:20:06.760Z,14852
2018-04-01T12:21:09.125Z,15272
2018-04-01T12:22:11.500Z,14472
2018-04-01T12:23:13.876Z,16068
2018-04-01T12:24:16.244Z,15152
2018-04-01T12:25:18.625Z,12552
2018-04-01T12:26:20.987Z,14216
2018-04-01T12:27:23.378Z,14052
2018-04-01T12:28:25.751Z,16392
2018-04-01T12:29:28.123Z,12788
2018-04-01T12:30:30.498Z,14108
2018-04-01T12:31:32.865Z,13088
2018-04-01T12:32:35.242Z,13540
2018-04-01T12:33:37.615Z,13012
2018-04-01T12:34:39.998Z,15524
2018-04-01T12:35:42.363Z,19232
2018-04-01T12:36:44.744Z,17388
2018-04-01T12:37:47.123Z,18080
2018-04-01T12:38:49.825Z,20832
2018-04-01T12:39:52.457Z,18340
2018-04-01T12:40:54.823Z,20800
2018-04-01T12:41:57.197Z,21152
2018-04-01T12:42:59.571Z,21056
2018-04-01T12:44:02.227Z,21600
2018-04-01T12:45:04.602Z,17708
2018-04-01T12:46:07.290Z,16892
2018-04-01T12:47:09.938Z,20864
2018-04-01T12:48:12.306Z,19840
2018-04-01T12:49:14.677Z,16744
2018-04-01T12:50:17.049Z,17668
2018-04-01T12:51:19.413Z,20064
2018-04-01T12:52:21.788Z,19488
2018-04-01T12:53:24.169Z,17684
2018-04-01T12:54:26.541Z,20384
2018-04-01T12:55:28.917Z,20288
2018-04-01T12:56:31.285Z,19904
2018-04-01T12:57:33.664Z,18152
2018-04-01T12:58:36.040Z,20288
2018-04-01T12:59:38.424Z,20640
2018-04-01T13:00:41.064Z,19840
2018-04-01T13:01:43.457Z,17816
2018-04-01T13:02:45.811Z,17972
2018-04-01T13:03:48.188Z,18312
2018-04-01T13:04:50.833Z,20192
2018-04-01T13:05:53.207Z,22784
2018-04-01T13:06:55.586Z,17692
2018-04-01T13:07:58.241Z,18308
2018-04-01T13:09:00.890Z,13304
2018-04-01T13:10:03.273Z,13544
2018-04-01T13:11:05.646Z,16044
2018-04-01T13:12:08.024Z,18804
2018-04-01T13:13:10.390Z,19872
2018-04-01T13:14:12.758Z,20896
2018-04-01T13:15:15.128Z,20800
2018-04-01T13:16:17.511Z,19776
2018-04-01T13:17:19.872Z,19744
2018-04-01T13:18:22.254Z,17648
2018-04-01T13:19:24.632Z,19712
2018-04-01T13:20:27.275Z,20832
2018-04-01T13:21:29.657Z,21952
2018-04-01T13:22:32.312Z,20064
2018-04-01T13:23:34.688Z,22848
2018-04-01T13:24:37.070Z,22848
2018-04-01T13:25:39.729Z,23872
2018-04-01T13:26:42.098Z,19968
2018-04-01T13:27:44.474Z,18832
2018-04-01T13:28:46.847Z,17024
2018-04-01T13:29:49.235Z,16020
2018-04-01T13:30:52.222Z,13776
2018-04-01T13:31:54.876Z,13344
2018-04-01T13:32:57.256Z,13700
2018-04-01T13:33:59.650Z,13536
2018-04-01T13:35:02.031Z,12268
2018-04-01T13:36:04.690Z,11624
2018-04-01T13:37:07.085Z,14564
2018-04-01T13:38:09.472Z,14604
2018-04-01T13:39:11.848Z,14680
2018-04-01T13:40:14.211Z,13684
2018-04-01T13:41:16.591Z,12760
2018-04-01T13:42:18.959Z,12644
2018-04-01T13:43:21.351Z,11868
2018-04-01T13:44:23.721Z,14236
2018-04-01T13:45:26.088Z,13440
2018-04-01T13:46:28.464Z,12216
2018-04-01T13:47:31.113Z,11500
2018-04-01T13:48:33.768Z,13132
2018-04-01T13:49:36.146Z,12556
2018-04-01T13:50:38.524Z,13340
2018-04-01T13:51:40.909Z,13000
2018-04-01T13:52:43.279Z,12152
2018-04-01T13:53:45.652Z,15096
2018-04-01T13:54:48.025Z,15052
2018-04-01T13:55:50.400Z,14120
2018-04-01T13:56:52.775Z,16716
2018-04-01T13:57:55.142Z,15816
2018-04-01T13:58:57.515Z,14960
2018-04-01T13:59:59.889Z,17008
2018-04-01T14:01:02.254Z,15040
2018-04-01T14:02:04.632Z,13784
2018-04-01T14:03:07.004Z,13236
2018-04-01T14:04:09.380Z,13152
2018-04-01T14:05:11.756Z,11996
2018-04-01T14:06:14.409Z,12232
2018-04-01T14:07:16.780Z,12880
2018-04-01T14:08:19.161Z,14492
2018-04-01T14:09:21.518Z,13280
2018-04-01T14:10:23.891Z,14752